sensor_id;sensor_type;location;lat;lon;timestamp;P1;durP1;ratioP1;P2;durP2;ratioP2
1410;SDS011;700;51.906;8.404;2023-04-10T00:02:13;52.50;;;40.70;;
1410;SDS011;700;51.906;8.404;2023-04-10T00:07:14;51.67;;;40.40;;
1410;SDS011;700;51.906;8.404;2023-04-10T00:12:17;53.00;;;40.60;;
1410;SDS011;700;51.906;8.404;2023-04-10T00:17:20;49.63;;;39.00;;
1410;SDS011;700;51.906;8.404;2023-04-10T00:22:25;50.37;;;38.90;;
1410;SDS011;700;51.906;8.404;2023-04-10T00:27:30;51.77;;;38.43;;
1410;SDS011;700;51.906;8.404;2023-04-10T00:32:31;50.57;;;37.20;;
1410;SDS011;700;51.906;8.404;2023-04-10T00:37:31;47.80;;;35.83;;
1410;SDS011;700;51.906;8.404;2023-04-10T00:42:34;51.90;;;36.83;;
1410;SDS011;700;51.906;8.404;2023-04-10T00:47:36;55.30;;;37.73;;
1410;SDS011;700;51.906;8.404;2023-04-10T00:52:37;49.63;;;37.73;;
1410;SDS011;700;51.906;8.404;2023-04-10T00:57:37;48.77;;;36.73;;
1410;SDS011;700;51.906;8.404;2023-04-10T01:02:39;48.60;;;35.77;;
1410;SDS011;700;51.906;8.404;2023-04-10T01:13:33;45.50;;;31.90;;
1410;SDS011;700;51.906;8.404;2023-04-10T01:18:47;41.03;;;29.40;;
1410;SDS011;700;51.906;8.404;2023-04-10T01:24:04;35.17;;;27.20;;
1410;SDS011;700;51.906;8.404;2023-04-10T01:29:08;36.30;;;28.00;;
1410;SDS011;700;51.906;8.404;2023-04-10T01:34:25;39.50;;;30.33;;
1410;SDS011;700;51.906;8.404;2023-04-10T01:39:34;37.77;;;28.10;;
1410;SDS011;700;51.906;8.404;2023-04-10T01:44:40;38.80;;;28.90;;
1410;SDS011;700;51.906;8.404;2023-04-10T01:49:42;43.90;;;28.87;;
1410;SDS011;700;51.906;8.404;2023-04-10T01:54:46;40.07;;;30.40;;
1410;SDS011;700;51.906;8.404;2023-04-10T01:59:53;34.43;;;24.30;;
1410;SDS011;700;51.906;8.404;2023-04-10T02:04:53;33.43;;;24.77;;
1410;SDS011;700;51.906;8.404;2023-04-10T02:09:59;33.33;;;25.17;;
1410;SDS011;700;51.906;8.404;2023-04-10T02:15:34;32.33;;;23.67;;
1410;SDS011;700;51.906;8.404;2023-04-10T02:20:36;31.93;;;23.90;;
1410;SDS011;700;51.906;8.404;2023-04-10T02:25:37;31.20;;;23.20;;
1410;SDS011;700;51.906;8.404;2023-04-10T02:30:39;33.10;;;23.90;;
1410;SDS011;700;51.906;8.404;2023-04-10T02:35:40;28.00;;;21.20;;
1410;SDS011;700;51.906;8.404;2023-04-10T02:40:41;27.57;;;20.40;;
1410;SDS011;700;51.906;8.404;2023-04-10T02:45:41;27.07;;;20.60;;
1410;SDS011;700;51.906;8.404;2023-04-10T02:50:42;29.73;;;22.03;;
1410;SDS011;700;51.906;8.404;2023-04-10T02:55:45;30.03;;;22.17;;
1410;SDS011;700;51.906;8.404;2023-04-10T03:00:49;28.63;;;20.77;;
1410;SDS011;700;51.906;8.404;2023-04-10T03:05:55;23.67;;;18.63;;
1410;SDS011;700;51.906;8.404;2023-04-10T03:10:56;23.67;;;19.57;;
1410;SDS011;700;51.906;8.404;2023-04-10T03:15:59;24.67;;;20.23;;
1410;SDS011;700;51.906;8.404;2023-04-10T03:21:00;25.93;;;19.30;;
1410;SDS011;700;51.906;8.404;2023-04-10T03:26:06;24.80;;;19.70;;
1410;SDS011;700;51.906;8.404;2023-04-10T03:31:07;26.40;;;19.23;;
1410;SDS011;700;51.906;8.404;2023-04-10T03:36:08;24.70;;;19.00;;
1410;SDS011;700;51.906;8.404;2023-04-10T03:41:10;26.10;;;19.50;;
1410;SDS011;700;51.906;8.404;2023-04-10T03:46:11;24.97;;;17.10;;
1410;SDS011;700;51.906;8.404;2023-04-10T03:51:14;22.50;;;18.40;;
1410;SDS011;700;51.906;8.404;2023-04-10T03:56:17;26.97;;;18.53;;
1410;SDS011;700;51.906;8.404;2023-04-10T04:01:19;21.00;;;16.77;;
1410;SDS011;700;51.906;8.404;2023-04-10T04:06:22;22.30;;;17.57;;
1410;SDS011;700;51.906;8.404;2023-04-10T04:11:23;22.80;;;17.10;;
1410;SDS011;700;51.906;8.404;2023-04-10T04:16:23;22.60;;;16.10;;
1410;SDS011;700;51.906;8.404;2023-04-10T04:21:24;23.07;;;17.73;;
1410;SDS011;700;51.906;8.404;2023-04-10T04:26:25;24.60;;;17.57;;
1410;SDS011;700;51.906;8.404;2023-04-10T04:31:28;23.43;;;17.30;;
1410;SDS011;700;51.906;8.404;2023-04-10T04:36:31;20.87;;;16.17;;
1410;SDS011;700;51.906;8.404;2023-04-10T04:41:32;21.90;;;16.53;;
1410;SDS011;700;51.906;8.404;2023-04-10T04:46:34;19.70;;;16.40;;
1410;SDS011;700;51.906;8.404;2023-04-10T04:51:35;20.37;;;16.17;;
1410;SDS011;700;51.906;8.404;2023-04-10T04:56:39;22.27;;;16.93;;
1410;SDS011;700;51.906;8.404;2023-04-10T05:01:42;20.33;;;17.57;;
1410;SDS011;700;51.906;8.404;2023-04-10T05:06:43;21.20;;;15.80;;
1410;SDS011;700;51.906;8.404;2023-04-10T05:11:43;21.03;;;15.20;;
1410;SDS011;700;51.906;8.404;2023-04-10T05:16:47;21.00;;;16.43;;
1410;SDS011;700;51.906;8.404;2023-04-10T05:21:47;18.40;;;14.97;;
1410;SDS011;700;51.906;8.404;2023-04-10T05:26:48;20.97;;;15.33;;
1410;SDS011;700;51.906;8.404;2023-04-10T05:31:48;20.03;;;16.60;;
1410;SDS011;700;51.906;8.404;2023-04-10T05:36:50;21.03;;;15.90;;
1410;SDS011;700;51.906;8.404;2023-04-10T05:41:50;19.57;;;15.80;;
1410;SDS011;700;51.906;8.404;2023-04-10T05:46:51;17.10;;;13.50;;
1410;SDS011;700;51.906;8.404;2023-04-10T05:51:52;19.03;;;15.07;;
1410;SDS011;700;51.906;8.404;2023-04-10T05:56:52;19.00;;;14.43;;
1410;SDS011;700;51.906;8.404;2023-04-10T06:01:55;16.67;;;13.00;;
1410;SDS011;700;51.906;8.404;2023-04-10T06:06:59;16.93;;;13.90;;
1410;SDS011;700;51.906;8.404;2023-04-10T06:12:00;17.77;;;13.07;;
1410;SDS011;700;51.906;8.404;2023-04-10T06:17:01;18.20;;;13.73;;
1410;SDS011;700;51.906;8.404;2023-04-10T06:22:06;14.90;;;12.77;;
1410;SDS011;700;51.906;8.404;2023-04-10T06:27:06;15.95;;;14.35;;
1410;SDS011;700;51.906;8.404;2023-04-10T06:32:07;14.80;;;12.97;;
1410;SDS011;700;51.906;8.404;2023-04-10T06:37:08;16.47;;;12.20;;
1410;SDS011;700;51.906;8.404;2023-04-10T06:42:09;16.13;;;13.60;;
1410;SDS011;700;51.906;8.404;2023-04-10T06:47:10;14.23;;;12.07;;
1410;SDS011;700;51.906;8.404;2023-04-10T06:52:10;14.13;;;12.37;;
1410;SDS011;700;51.906;8.404;2023-04-10T06:57:13;16.60;;;12.20;;
1410;SDS011;700;51.906;8.404;2023-04-10T07:02:17;13.67;;;11.73;;
1410;SDS011;700;51.906;8.404;2023-04-10T07:07:18;12.33;;;11.03;;
1410;SDS011;700;51.906;8.404;2023-04-10T07:12:21;13.60;;;12.10;;
1410;SDS011;700;51.906;8.404;2023-04-10T07:17:21;13.60;;;12.17;;
1410;SDS011;700;51.906;8.404;2023-04-10T07:22:24;12.47;;;11.17;;
1410;SDS011;700;51.906;8.404;2023-04-10T07:27:25;12.70;;;11.13;;
1410;SDS011;700;51.906;8.404;2023-04-10T07:32:26;14.30;;;11.30;;
1410;SDS011;700;51.906;8.404;2023-04-10T07:37:27;12.37;;;10.87;;
1410;SDS011;700;51.906;8.404;2023-04-10T07:42:28;12.73;;;11.30;;
1410;SDS011;700;51.906;8.404;2023-04-10T07:47:29;13.57;;;11.40;;
1410;SDS011;700;51.906;8.404;2023-04-10T07:52:34;12.53;;;10.90;;
1410;SDS011;700;51.906;8.404;2023-04-10T07:57:35;12.63;;;11.07;;
1410;SDS011;700;51.906;8.404;2023-04-10T08:02:38;12.50;;;11.20;;
1410;SDS011;700;51.906;8.404;2023-04-10T08:07:40;12.10;;;10.83;;
1410;SDS011;700;51.906;8.404;2023-04-10T08:12:43;11.40;;;10.30;;
1410;SDS011;700;51.906;8.404;2023-04-10T08:17:46;10.93;;;9.83;;
1410;SDS011;700;51.906;8.404;2023-04-10T08:22:47;9.47;;;8.60;;
1410;SDS011;700;51.906;8.404;2023-04-10T08:27:47;9.90;;;9.00;;
1410;SDS011;700;51.906;8.404;2023-04-10T08:32:48;9.70;;;8.70;;
1410;SDS011;700;51.906;8.404;2023-04-10T08:37:48;10.57;;;9.47;;
1410;SDS011;700;51.906;8.404;2023-04-10T08:42:49;10.63;;;9.60;;
1410;SDS011;700;51.906;8.404;2023-04-10T08:47:50;9.43;;;8.63;;
1410;SDS011;700;51.906;8.404;2023-04-10T08:52:53;11.10;;;10.07;;
1410;SDS011;700;51.906;8.404;2023-04-10T08:57:59;10.70;;;9.40;;
1410;SDS011;700;51.906;8.404;2023-04-10T09:03:00;10.00;;;9.00;;
1410;SDS011;700;51.906;8.404;2023-04-10T09:08:03;9.20;;;8.30;;
1410;SDS011;700;51.906;8.404;2023-04-10T09:13:06;10.60;;;9.60;;
1410;SDS011;700;51.906;8.404;2023-04-10T09:18:09;10.23;;;8.67;;
1410;SDS011;700;51.906;8.404;2023-04-10T09:23:19;9.87;;;8.97;;
1410;SDS011;700;51.906;8.404;2023-04-10T09:28:22;9.27;;;8.40;;
1410;SDS011;700;51.906;8.404;2023-04-10T09:33:24;9.40;;;8.50;;
1410;SDS011;700;51.906;8.404;2023-04-10T09:38:29;9.00;;;8.20;;
1410;SDS011;700;51.906;8.404;2023-04-10T09:43:30;8.77;;;7.97;;
1410;SDS011;700;51.906;8.404;2023-04-10T09:48:30;8.07;;;7.27;;
1410;SDS011;700;51.906;8.404;2023-04-10T09:53:31;8.23;;;7.53;;
1410;SDS011;700;51.906;8.404;2023-04-10T09:58:48;7.73;;;7.03;;
1410;SDS011;700;51.906;8.404;2023-04-10T10:03:53;7.73;;;7.03;;
1410;SDS011;700;51.906;8.404;2023-04-10T10:08:55;7.90;;;7.30;;
1410;SDS011;700;51.906;8.404;2023-04-10T10:13:58;7.53;;;6.90;;
1410;SDS011;700;51.906;8.404;2023-04-10T10:19:06;7.90;;;7.20;;
1410;SDS011;700;51.906;8.404;2023-04-10T10:24:12;8.00;;;7.40;;
1410;SDS011;700;51.906;8.404;2023-04-10T10:29:17;8.07;;;7.37;;
1410;SDS011;700;51.906;8.404;2023-04-10T10:34:22;9.67;;;8.00;;
1410;SDS011;700;51.906;8.404;2023-04-10T10:44:46;8.57;;;7.67;;
1410;SDS011;700;51.906;8.404;2023-04-10T10:54:57;6.80;;;6.17;;
1410;SDS011;700;51.906;8.404;2023-04-10T10:59:57;7.90;;;7.10;;
1410;SDS011;700;51.906;8.404;2023-04-10T11:05:00;7.10;;;6.50;;
1410;SDS011;700;51.906;8.404;2023-04-10T11:10:01;6.67;;;6.00;;
1410;SDS011;700;51.906;8.404;2023-04-10T11:15:04;7.17;;;6.50;;
1410;SDS011;700;51.906;8.404;2023-04-10T11:20:05;7.37;;;6.07;;
1410;SDS011;700;51.906;8.404;2023-04-10T11:25:07;7.00;;;6.40;;
1410;SDS011;700;51.906;8.404;2023-04-10T11:35:27;6.23;;;5.53;;
1410;SDS011;700;51.906;8.404;2023-04-10T11:40:33;6.07;;;5.47;;
1410;SDS011;700;51.906;8.404;2023-04-10T11:45:33;5.93;;;5.37;;
1410;SDS011;700;51.906;8.404;2023-04-10T11:50:34;5.50;;;5.00;;
1410;SDS011;700;51.906;8.404;2023-04-10T11:55:36;4.87;;;4.43;;
1410;SDS011;700;51.906;8.404;2023-04-10T12:00:37;5.93;;;4.93;;
1410;SDS011;700;51.906;8.404;2023-04-10T12:05:44;5.67;;;5.17;;
1410;SDS011;700;51.906;8.404;2023-04-10T12:10:48;5.40;;;4.30;;
1410;SDS011;700;51.906;8.404;2023-04-10T12:15:52;6.47;;;4.93;;
1410;SDS011;700;51.906;8.404;2023-04-10T12:20:53;5.20;;;4.70;;
1410;SDS011;700;51.906;8.404;2023-04-10T12:26:15;5.30;;;4.80;;
1410;SDS011;700;51.906;8.404;2023-04-10T12:31:16;5.30;;;4.80;;
1410;SDS011;700;51.906;8.404;2023-04-10T12:36:21;4.53;;;4.13;;
1410;SDS011;700;51.906;8.404;2023-04-10T12:41:32;3.87;;;3.57;;
1410;SDS011;700;51.906;8.404;2023-04-10T12:46:35;5.00;;;4.20;;
1410;SDS011;700;51.906;8.404;2023-04-10T12:51:49;4.30;;;3.90;;
1410;SDS011;700;51.906;8.404;2023-04-10T12:56:50;4.60;;;4.20;;
1410;SDS011;700;51.906;8.404;2023-04-10T13:01:51;4.50;;;4.10;;
1410;SDS011;700;51.906;8.404;2023-04-10T13:06:55;3.50;;;3.20;;
1410;SDS011;700;51.906;8.404;2023-04-10T13:11:56;2.77;;;2.47;;
1410;SDS011;700;51.906;8.404;2023-04-10T13:16:58;3.10;;;2.73;;
1410;SDS011;700;51.906;8.404;2023-04-10T13:21:59;3.47;;;3.17;;
1410;SDS011;700;51.906;8.404;2023-04-10T13:27:01;3.13;;;2.70;;
1410;SDS011;700;51.906;8.404;2023-04-10T13:32:02;4.00;;;3.07;;
1410;SDS011;700;51.906;8.404;2023-04-10T13:37:04;2.90;;;2.60;;
1410;SDS011;700;51.906;8.404;2023-04-10T13:42:05;3.10;;;2.80;;
1410;SDS011;700;51.906;8.404;2023-04-10T13:47:05;2.90;;;2.60;;
1410;SDS011;700;51.906;8.404;2023-04-10T13:52:08;3.20;;;2.90;;
1410;SDS011;700;51.906;8.404;2023-04-10T13:57:09;4.20;;;2.90;;
1410;SDS011;700;51.906;8.404;2023-04-10T14:02:11;4.77;;;3.30;;
1410;SDS011;700;51.906;8.404;2023-04-10T14:07:12;3.30;;;2.80;;
1410;SDS011;700;51.906;8.404;2023-04-10T14:12:15;3.47;;;2.70;;
1410;SDS011;700;51.906;8.404;2023-04-10T14:17:21;3.33;;;3.03;;
1410;SDS011;700;51.906;8.404;2023-04-10T14:22:21;3.73;;;3.43;;
1410;SDS011;700;51.906;8.404;2023-04-10T14:27:22;3.03;;;2.63;;
1410;SDS011;700;51.906;8.404;2023-04-10T14:32:23;3.30;;;3.00;;
1410;SDS011;700;51.906;8.404;2023-04-10T14:37:23;3.37;;;2.83;;
1410;SDS011;700;51.906;8.404;2023-04-10T14:42:24;3.60;;;2.30;;
1410;SDS011;700;51.906;8.404;2023-04-10T14:47:25;3.70;;;3.33;;
1410;SDS011;700;51.906;8.404;2023-04-10T14:52:28;3.20;;;2.90;;
1410;SDS011;700;51.906;8.404;2023-04-10T14:57:31;2.70;;;2.50;;
1410;SDS011;700;51.906;8.404;2023-04-10T15:02:32;2.70;;;2.50;;
1410;SDS011;700;51.906;8.404;2023-04-10T15:07:33;4.37;;;3.03;;
1410;SDS011;700;51.906;8.404;2023-04-10T15:12:36;4.13;;;3.20;;
1410;SDS011;700;51.906;8.404;2023-04-10T15:17:36;3.00;;;2.70;;
1410;SDS011;700;51.906;8.404;2023-04-10T15:22:37;4.13;;;3.10;;
1410;SDS011;700;51.906;8.404;2023-04-10T15:27:42;4.97;;;3.40;;
1410;SDS011;700;51.906;8.404;2023-04-10T15:32:42;3.90;;;3.50;;
1410;SDS011;700;51.906;8.404;2023-04-10T15:37:43;3.97;;;3.30;;
1410;SDS011;700;51.906;8.404;2023-04-10T15:42:43;3.93;;;3.53;;
1410;SDS011;700;51.906;8.404;2023-04-10T15:47:44;4.73;;;3.50;;
1410;SDS011;700;51.906;8.404;2023-04-10T15:52:48;4.23;;;3.83;;
1410;SDS011;700;51.906;8.404;2023-04-10T15:57:49;3.97;;;3.67;;
1410;SDS011;700;51.906;8.404;2023-04-10T16:02:52;3.53;;;3.10;;
1410;SDS011;700;51.906;8.404;2023-04-10T16:07:53;4.87;;;3.90;;
1410;SDS011;700;51.906;8.404;2023-04-10T16:12:54;4.03;;;2.90;;
1410;SDS011;700;51.906;8.404;2023-04-10T16:18:03;3.20;;;2.87;;
1410;SDS011;700;51.906;8.404;2023-04-10T16:23:04;3.23;;;2.93;;
1410;SDS011;700;51.906;8.404;2023-04-10T16:28:08;3.83;;;3.43;;
1410;SDS011;700;51.906;8.404;2023-04-10T16:33:11;3.57;;;3.27;;
1410;SDS011;700;51.906;8.404;2023-04-10T16:38:11;4.93;;;3.60;;
1410;SDS011;700;51.906;8.404;2023-04-10T16:43:12;4.00;;;3.27;;
1410;SDS011;700;51.906;8.404;2023-04-10T16:48:15;5.33;;;2.77;;
1410;SDS011;700;51.906;8.404;2023-04-10T16:53:16;4.80;;;3.70;;
1410;SDS011;700;51.906;8.404;2023-04-10T16:58:17;4.50;;;3.60;;
1410;SDS011;700;51.906;8.404;2023-04-10T17:03:20;4.03;;;3.50;;
1410;SDS011;700;51.906;8.404;2023-04-10T17:08:23;4.20;;;3.70;;
1410;SDS011;700;51.906;8.404;2023-04-10T17:13:25;3.63;;;3.33;;
1410;SDS011;700;51.906;8.404;2023-04-10T17:18:26;3.60;;;3.15;;
1410;SDS011;700;51.906;8.404;2023-04-10T17:23:29;3.73;;;3.43;;
1410;SDS011;700;51.906;8.404;2023-04-10T17:28:32;4.30;;;3.90;;
1410;SDS011;700;51.906;8.404;2023-04-10T17:33:33;4.53;;;3.90;;
1410;SDS011;700;51.906;8.404;2023-04-10T17:38:36;4.20;;;3.80;;
1410;SDS011;700;51.906;8.404;2023-04-10T17:43:38;4.57;;;4.17;;
1410;SDS011;700;51.906;8.404;2023-04-10T17:48:39;4.33;;;3.93;;
1410;SDS011;700;51.906;8.404;2023-04-10T17:53:45;6.53;;;4.50;;
1410;SDS011;700;51.906;8.404;2023-04-10T17:58:48;6.77;;;6.00;;
1410;SDS011;700;51.906;8.404;2023-04-10T18:03:49;4.40;;;3.77;;
1410;SDS011;700;51.906;8.404;2023-04-10T18:08:54;3.53;;;3.23;;
1410;SDS011;700;51.906;8.404;2023-04-10T18:13:55;4.30;;;3.60;;
1410;SDS011;700;51.906;8.404;2023-04-10T18:18:58;4.47;;;3.70;;
1410;SDS011;700;51.906;8.404;2023-04-10T18:23:59;4.13;;;3.70;;
1410;SDS011;700;51.906;8.404;2023-04-10T18:28:59;7.20;;;6.00;;
1410;SDS011;700;51.906;8.404;2023-04-10T18:34:00;7.07;;;6.37;;
1410;SDS011;700;51.906;8.404;2023-04-10T18:39:01;3.90;;;3.50;;
1410;SDS011;700;51.906;8.404;2023-04-10T18:44:04;5.57;;;4.13;;
1410;SDS011;700;51.906;8.404;2023-04-10T18:49:09;6.30;;;4.17;;
1410;SDS011;700;51.906;8.404;2023-04-10T18:54:12;4.17;;;2.57;;
1410;SDS011;700;51.906;8.404;2023-04-10T18:59:13;3.97;;;3.50;;
1410;SDS011;700;51.906;8.404;2023-04-10T19:04:13;3.40;;;3.10;;
1410;SDS011;700;51.906;8.404;2023-04-10T19:09:16;2.90;;;2.70;;
1410;SDS011;700;51.906;8.404;2023-04-10T19:14:20;2.77;;;2.57;;
1410;SDS011;700;51.906;8.404;2023-04-10T19:19:23;4.50;;;2.87;;
1410;SDS011;700;51.906;8.404;2023-04-10T19:24:26;3.50;;;2.40;;
1410;SDS011;700;51.906;8.404;2023-04-10T19:29:27;2.70;;;2.43;;
1410;SDS011;700;51.906;8.404;2023-04-10T19:34:32;4.47;;;2.87;;
1410;SDS011;700;51.906;8.404;2023-04-10T19:39:33;6.27;;;3.23;;
1410;SDS011;700;51.906;8.404;2023-04-10T19:44:37;7.30;;;3.20;;
1410;SDS011;700;51.906;8.404;2023-04-10T19:49:37;5.57;;;3.50;;
1410;SDS011;700;51.906;8.404;2023-04-10T19:54:38;4.63;;;3.67;;
1410;SDS011;700;51.906;8.404;2023-04-10T19:59:39;4.40;;;3.37;;
1410;SDS011;700;51.906;8.404;2023-04-10T20:04:42;5.10;;;3.57;;
1410;SDS011;700;51.906;8.404;2023-04-10T20:09:43;4.23;;;3.20;;
1410;SDS011;700;51.906;8.404;2023-04-10T20:14:43;6.80;;;4.80;;
1410;SDS011;700;51.906;8.404;2023-04-10T20:19:44;4.90;;;4.03;;
1410;SDS011;700;51.906;8.404;2023-04-10T20:24:44;4.90;;;4.40;;
1410;SDS011;700;51.906;8.404;2023-04-10T20:29:48;5.17;;;4.20;;
1410;SDS011;700;51.906;8.404;2023-04-10T20:34:49;5.30;;;4.10;;
1410;SDS011;700;51.906;8.404;2023-04-10T20:39:52;4.03;;;3.50;;
1410;SDS011;700;51.906;8.404;2023-04-10T20:44:55;8.03;;;5.20;;
1410;SDS011;700;51.906;8.404;2023-04-10T20:49:55;5.80;;;4.57;;
1410;SDS011;700;51.906;8.404;2023-04-10T20:54:56;5.30;;;4.80;;
1410;SDS011;700;51.906;8.404;2023-04-10T20:59:57;5.17;;;3.80;;
1410;SDS011;700;51.906;8.404;2023-04-10T21:04:57;5.40;;;4.57;;
1410;SDS011;700;51.906;8.404;2023-04-10T21:10:00;7.47;;;4.93;;
1410;SDS011;700;51.906;8.404;2023-04-10T21:15:02;6.80;;;5.20;;
1410;SDS011;700;51.906;8.404;2023-04-10T21:20:06;5.00;;;4.43;;
1410;SDS011;700;51.906;8.404;2023-04-10T21:25:09;5.07;;;4.67;;
1410;SDS011;700;51.906;8.404;2023-04-10T21:30:12;5.07;;;4.43;;
1410;SDS011;700;51.906;8.404;2023-04-10T21:35:13;6.33;;;4.43;;
1410;SDS011;700;51.906;8.404;2023-04-10T21:40:13;9.20;;;4.50;;
1410;SDS011;700;51.906;8.404;2023-04-10T21:45:16;6.97;;;3.90;;
1410;SDS011;700;51.906;8.404;2023-04-10T21:50:19;3.63;;;3.17;;
1410;SDS011;700;51.906;8.404;2023-04-10T21:55:20;4.50;;;3.27;;
1410;SDS011;700;51.906;8.404;2023-04-10T22:00:21;6.30;;;2.97;;
1410;SDS011;700;51.906;8.404;2023-04-10T22:05:22;2.67;;;2.23;;
1410;SDS011;700;51.906;8.404;2023-04-10T22:10:25;3.20;;;2.40;;
1410;SDS011;700;51.906;8.404;2023-04-10T22:15:26;2.80;;;2.33;;
1410;SDS011;700;51.906;8.404;2023-04-10T22:20:26;3.20;;;2.60;;
1410;SDS011;700;51.906;8.404;2023-04-10T22:25:27;3.20;;;2.57;;
1410;SDS011;700;51.906;8.404;2023-04-10T22:30:27;3.03;;;2.70;;
1410;SDS011;700;51.906;8.404;2023-04-10T22:35:28;2.60;;;2.40;;
1410;SDS011;700;51.906;8.404;2023-04-10T22:40:31;4.87;;;2.43;;
1410;SDS011;700;51.906;8.404;2023-04-10T22:45:32;9.03;;;5.10;;
1410;SDS011;700;51.906;8.404;2023-04-10T22:50:32;4.37;;;3.27;;
1410;SDS011;700;51.906;8.404;2023-04-10T22:55:33;6.53;;;3.73;;
1410;SDS011;700;51.906;8.404;2023-04-10T23:00:39;7.57;;;3.80;;
1410;SDS011;700;51.906;8.404;2023-04-10T23:05:39;3.07;;;1.97;;
1410;SDS011;700;51.906;8.404;2023-04-10T23:10:42;2.70;;;2.07;;
1410;SDS011;700;51.906;8.404;2023-04-10T23:15:49;3.83;;;1.93;;
1410;SDS011;700;51.906;8.404;2023-04-10T23:20:50;2.93;;;2.30;;
1410;SDS011;700;51.906;8.404;2023-04-10T23:25:57;5.77;;;2.97;;
1410;SDS011;700;51.906;8.404;2023-04-10T23:30:58;7.50;;;3.70;;
1410;SDS011;700;51.906;8.404;2023-04-10T23:35:59;4.03;;;3.23;;
1410;SDS011;700;51.906;8.404;2023-04-10T23:41:00;7.20;;;3.57;;
1410;SDS011;700;51.906;8.404;2023-04-10T23:46:01;7.10;;;3.60;;
1410;SDS011;700;51.906;8.404;2023-04-10T23:51:03;6.27;;;2.87;;
1410;SDS011;700;51.906;8.404;2023-04-10T23:56:05;3.17;;;1.90;;
